createdAt,value
2023-03-04T00:01:17.115Z,39.28
2023-03-04T00:04:04.637Z,34.08
2023-03-04T00:06:52.322Z,38.63
2023-03-04T00:09:40.077Z,37.88
2023-03-04T00:12:27.821Z,36.63
2023-03-04T00:15:16.185Z,41.05
2023-03-04T00:18:04.787Z,42.97
2023-03-04T00:20:52.522Z,44.80
2023-03-04T00:23:41.794Z,45.13
2023-03-04T00:26:29.296Z,45.42
2023-03-04T00:29:16.941Z,45.97
2023-03-04T00:32:04.829Z,51.03
2023-03-04T00:34:52.544Z,49.65
2023-03-04T00:37:40.179Z,51.38
2023-03-04T00:40:27.935Z,50.00
2023-03-04T00:43:15.540Z,53.45
2023-03-04T00:46:03.386Z,57.90
2023-03-04T00:48:50.955Z,52.70
2023-03-04T00:51:39.094Z,58.85
2023-03-04T00:54:27.414Z,55.05
2023-03-04T00:57:15.005Z,53.55
2023-03-04T01:00:03.109Z,63.97
2023-03-04T01:02:50.874Z,60.45
2023-03-04T01:05:38.675Z,59.97
2023-03-04T01:08:26.920Z,55.60
2023-03-04T01:11:14.676Z,47.13
2023-03-04T01:14:02.438Z,46.00
2023-03-04T01:16:50.885Z,49.85
2023-03-04T01:19:38.810Z,48.85
2023-03-04T01:22:26.490Z,47.33
2023-03-04T01:25:14.108Z,46.17
2023-03-04T01:28:01.570Z,46.50
2023-03-04T01:30:49.225Z,52.60
2023-03-04T01:33:36.798Z,48.05
2023-03-04T01:36:24.326Z,51.90
2023-03-04T01:39:11.880Z,47.65
2023-03-04T01:41:59.996Z,48.03
2023-03-04T01:44:48.414Z,48.88
2023-03-04T01:47:36.799Z,49.65
2023-03-04T01:50:32.928Z,52.88
2023-03-04T01:53:24.218Z,55.30
2023-03-04T01:56:29.184Z,53.45
2023-03-04T01:59:20.180Z,51.15
2023-03-04T02:02:08.175Z,48.20
2023-03-04T02:04:55.879Z,50.85
2023-03-04T02:07:46.731Z,55.00
2023-03-04T02:10:35.077Z,55.65
2023-03-04T02:13:23.439Z,50.25
2023-03-04T02:16:12.071Z,52.17
2023-03-04T02:19:00.803Z,51.72
2023-03-04T02:21:48.682Z,48.85
2023-03-04T02:24:58.844Z,47.47
2023-03-04T02:27:46.787Z,50.40
2023-03-04T02:30:37.613Z,53.33
2023-03-04T02:33:25.229Z,50.15
2023-03-04T02:36:13.272Z,46.47
2023-03-04T02:39:05.788Z,46.83
2023-03-04T02:41:55.640Z,45.55
2023-03-04T02:44:49.347Z,48.75
2023-03-04T02:47:37.272Z,47.13
2023-03-04T02:50:26.383Z,45.78
2023-03-04T02:53:15.634Z,46.55
2023-03-04T02:56:03.908Z,47.28
2023-03-04T02:58:51.734Z,47.75
2023-03-04T03:01:39.333Z,50.15
2023-03-04T03:04:28.208Z,52.42
2023-03-04T03:07:16.161Z,54.88
2023-03-04T03:10:04.169Z,50.28
2023-03-04T03:12:52.033Z,55.30
2023-03-04T03:15:43.247Z,50.08
2023-03-04T03:18:30.739Z,49.60
2023-03-04T03:21:18.382Z,48.42
2023-03-04T03:24:06.159Z,47.80
2023-03-04T03:26:53.619Z,52.40
2023-03-04T03:29:41.577Z,53.40
2023-03-04T03:32:29.231Z,48.28
2023-03-04T03:35:17.350Z,57.08
2023-03-04T03:38:04.982Z,56.90
2023-03-04T03:40:52.752Z,59.17
2023-03-04T03:43:40.353Z,54.97
2023-03-04T03:46:27.834Z,58.67
2023-03-04T03:49:17.505Z,54.85
2023-03-04T03:52:05.525Z,54.72
2023-03-04T03:54:53.168Z,56.97
2023-03-04T03:57:41.389Z,59.70
2023-03-04T04:00:29.199Z,60.90
2023-03-04T04:03:17.482Z,51.72
2023-03-04T04:06:05.301Z,58.78
2023-03-04T04:08:56.536Z,61.75
2023-03-04T04:11:44.189Z,60.67
2023-03-04T04:14:32.072Z,59.20
2023-03-04T04:17:19.675Z,55.50
2023-03-04T04:20:09.344Z,61.25
2023-03-04T04:22:56.897Z,59.95
2023-03-04T04:25:44.574Z,51.53
2023-03-04T04:28:32.333Z,56.45
2023-03-04T04:31:20.148Z,58.78
2023-03-04T04:34:08.905Z,60.90
2023-03-04T04:36:56.773Z,55.85
2023-03-04T04:39:44.556Z,53.22
2023-03-04T04:42:32.421Z,58.08
2023-03-04T04:45:20.191Z,51.13
2023-03-04T04:48:09.140Z,54.28
2023-03-04T04:50:56.889Z,49.63
2023-03-04T04:53:45.049Z,55.10
2023-03-04T04:56:33.173Z,50.70
2023-03-04T04:59:21.453Z,48.13
2023-03-04T05:02:08.968Z,44.65
2023-03-04T05:04:56.452Z,48.53
2023-03-04T05:07:44.257Z,41.15
2023-03-04T05:10:31.811Z,43.88
2023-03-04T05:13:19.719Z,45.22
2023-03-04T05:16:08.128Z,49.17
2023-03-04T05:18:59.555Z,42.55
2023-03-04T05:21:47.413Z,46.25
2023-03-04T05:24:35.218Z,44.40
2023-03-04T05:27:23.029Z,54.45
2023-03-04T05:30:11.399Z,55.40
2023-03-04T05:32:59.505Z,59.80
2023-03-04T05:35:49.277Z,61.20
2023-03-04T05:38:37.093Z,61.00
2023-03-04T05:41:25.924Z,64.35
2023-03-04T05:44:14.198Z,58.80
2023-03-04T05:47:01.866Z,45.10
2023-03-04T05:49:49.648Z,42.97
2023-03-04T05:52:37.376Z,45.50
2023-03-04T05:55:25.058Z,43.28
2023-03-04T05:58:12.641Z,43.05
2023-03-04T06:01:01.401Z,45.75
2023-03-04T06:03:49.386Z,42.55
2023-03-04T06:06:37.055Z,42.42
2023-03-04T06:09:24.836Z,42.88
2023-03-04T06:12:15.463Z,39.45
2023-03-04T06:15:04.361Z,43.40
2023-03-04T06:17:52.329Z,38.50
2023-03-04T06:20:40.108Z,43.63
2023-03-04T06:23:28.407Z,38.10
2023-03-04T06:26:16.521Z,39.78
2023-03-04T06:29:05.814Z,41.97
2023-03-04T06:31:53.919Z,42.25
2023-03-04T06:34:41.598Z,40.25
2023-03-04T06:37:29.158Z,42.70
2023-03-04T06:40:17.081Z,38.25
2023-03-04T06:43:05.044Z,44.03
2023-03-04T06:45:52.854Z,39.08
2023-03-04T06:48:40.537Z,47.38
2023-03-04T06:51:28.638Z,47.13
2023-03-04T06:54:17.702Z,33.95
2023-03-04T06:57:05.841Z,38.45
2023-03-04T06:59:53.809Z,42.80
2023-03-04T07:02:44.033Z,42.72
2023-03-04T07:05:32.662Z,43.15
2023-03-04T07:08:22.030Z,37.42
2023-03-04T07:11:10.564Z,42.63
2023-03-04T07:13:58.800Z,38.33
2023-03-04T07:16:46.930Z,36.78
2023-03-04T07:19:34.885Z,38.88
2023-03-04T07:22:22.688Z,40.92
2023-03-04T07:25:13.808Z,39.78
2023-03-04T07:28:04.504Z,38.28
2023-03-04T07:30:52.677Z,38.08
2023-03-04T07:33:40.860Z,38.33
2023-03-04T07:36:28.938Z,40.88
2023-03-04T07:39:18.054Z,36.47
2023-03-04T07:42:06.083Z,40.90
2023-03-04T07:44:55.621Z,39.97
2023-03-04T07:47:43.449Z,34.78
2023-03-04T07:50:33.983Z,40.47
2023-03-04T07:53:21.924Z,36.65
2023-03-04T07:56:20.483Z,45.50
2023-03-04T07:59:08.204Z,37.97
2023-03-04T08:01:57.784Z,34.28
2023-03-04T08:04:45.637Z,34.25
2023-03-04T08:07:36.161Z,34.67
2023-03-04T08:10:24.040Z,36.97
2023-03-04T08:13:12.683Z,36.38
2023-03-04T08:16:02.845Z,35.20
2023-03-04T08:18:53.983Z,36.92
2023-03-04T08:21:47.200Z,33.30
2023-03-04T08:24:36.661Z,38.37
2023-03-04T08:27:24.255Z,38.85
2023-03-04T08:30:12.577Z,34.92
2023-03-04T08:33:01.392Z,35.42
2023-03-04T08:35:52.904Z,44.45
2023-03-04T08:38:40.783Z,28.88
2023-03-04T08:41:38.004Z,36.83
2023-03-04T08:44:28.943Z,33.35
2023-03-04T09:02:52.644Z,39.75
2023-03-04T09:05:41.266Z,36.38
2023-03-04T09:08:32.534Z,33.35
2023-03-04T09:11:20.261Z,28.10
2023-03-04T09:14:13.223Z,29.55
2023-03-04T09:17:01.111Z,28.02
2023-03-04T09:19:49.282Z,29.42
2023-03-04T09:22:38.505Z,27.23
2023-03-04T09:25:26.681Z,29.73
2023-03-04T09:28:14.751Z,28.30
2023-03-04T09:31:03.052Z,28.15
2023-03-04T09:33:52.554Z,28.70
2023-03-04T09:36:40.960Z,32.63
2023-03-04T09:39:29.844Z,29.20
2023-03-04T09:42:33.257Z,26.92
2023-03-04T09:45:24.937Z,34.25
2023-03-04T09:48:19.191Z,28.92
2023-03-04T09:51:32.468Z,27.35
2023-03-04T09:54:40.380Z,27.05
2023-03-04T09:57:40.498Z,25.35
2023-03-04T10:00:45.209Z,25.90
2023-03-04T10:03:48.888Z,24.17
2023-03-04T10:06:38.206Z,33.45
2023-03-04T10:09:46.589Z,25.25
2023-03-04T10:12:40.691Z,32.10
2023-03-04T10:18:33.218Z,27.27
2023-03-04T10:21:30.111Z,28.13
2023-03-04T10:24:29.842Z,24.58
2023-03-04T10:27:20.064Z,22.40
2023-03-04T10:30:23.771Z,23.92
2023-03-04T10:33:23.195Z,17.13
2023-03-04T10:36:22.956Z,19.77
2023-03-04T10:39:27.637Z,20.83
2023-03-04T10:42:15.291Z,19.73
2023-03-04T10:45:06.377Z,21.50
2023-03-04T10:47:56.277Z,18.48
2023-03-04T10:50:46.399Z,21.02
2023-03-04T10:53:40.280Z,19.38
2023-03-04T10:56:36.933Z,15.75
2023-03-04T10:59:40.745Z,12.77
2023-03-04T11:02:37.894Z,19.10
2023-03-04T11:05:26.284Z,25.00
2023-03-04T11:08:26.940Z,22.58
2023-03-04T11:11:25.110Z,18.10
2023-03-04T11:14:30.463Z,18.38
2023-03-04T11:17:45.683Z,15.40
2023-03-04T11:21:08.768Z,22.73
2023-03-04T11:24:03.311Z,17.35
2023-03-04T11:26:56.464Z,19.20
2023-03-04T11:29:52.148Z,19.55
2023-03-04T11:32:43.729Z,27.15
2023-03-04T11:35:55.094Z,13.80
2023-03-04T11:38:49.451Z,14.77
2023-03-04T11:41:40.740Z,14.90
2023-03-04T11:44:29.206Z,14.85
2023-03-04T11:47:19.653Z,12.40
2023-03-04T11:50:45.694Z,15.65
2023-03-04T11:53:56.500Z,12.93
2023-03-04T11:56:47.666Z,18.52
2023-03-04T11:59:58.430Z,11.50
2023-03-04T12:03:13.288Z,10.82
2023-03-04T12:06:44.674Z,9.65
2023-03-04T12:09:59.092Z,13.63
2023-03-04T12:13:16.324Z,14.48
2023-03-04T12:16:11.728Z,11.10
2023-03-04T12:19:16.193Z,12.27
2023-03-04T12:22:24.254Z,10.73
2023-03-04T12:25:42.380Z,15.15
2023-03-04T12:28:42.943Z,10.48
2023-03-04T12:31:41.806Z,10.73
2023-03-04T12:34:52.822Z,9.20
2023-03-04T12:38:14.673Z,8.85
2023-03-04T12:41:29.753Z,13.35
2023-03-04T12:44:27.309Z,8.85
2023-03-04T12:47:28.592Z,11.82
2023-03-04T12:50:30.188Z,15.38
2023-03-04T12:53:30.647Z,9.35
2023-03-04T12:56:41.064Z,14.45
2023-03-04T13:12:55.970Z,6.23
2023-03-04T13:15:47.132Z,7.53
2023-03-04T13:18:47.525Z,7.32
2023-03-04T13:22:05.052Z,7.47
2023-03-04T13:25:00.839Z,10.70
2023-03-04T13:28:15.784Z,15.50
2023-03-04T13:31:19.204Z,10.68
2023-03-04T13:34:54.970Z,9.57
2023-03-04T13:38:01.664Z,10.48
2023-03-04T13:41:17.479Z,10.38
2023-03-04T13:44:45.696Z,8.73
2023-03-04T13:47:46.629Z,14.30
2023-03-04T13:50:42.740Z,12.73
2023-03-04T13:53:39.822Z,8.60
2023-03-04T13:56:42.853Z,10.90
2023-03-04T13:59:45.650Z,13.98
2023-03-04T14:02:36.686Z,10.93
2023-03-04T14:05:27.812Z,14.23
2023-03-04T14:08:21.543Z,13.63
2023-03-04T14:11:35.302Z,9.25
2023-03-04T14:14:50.913Z,15.27
2023-03-04T14:17:41.097Z,9.05
2023-03-04T14:20:37.238Z,16.33
2023-03-04T14:23:36.717Z,11.55
2023-03-04T14:26:25.985Z,12.52
2023-03-04T14:29:32.093Z,12.18
2023-03-04T14:32:24.421Z,15.93
2023-03-04T14:35:32.799Z,11.43
2023-03-04T14:38:30.164Z,12.50
2023-03-04T14:41:25.911Z,14.10
2023-03-04T14:44:26.205Z,11.32
2023-03-04T14:47:26.755Z,10.80
2023-03-04T14:50:25.137Z,13.10
2023-03-04T14:53:22.808Z,9.30
2023-03-04T14:56:11.840Z,13.15
2023-03-04T14:59:00.318Z,10.27
2023-03-04T15:01:52.304Z,14.77
2023-03-04T15:04:42.510Z,12.55
2023-03-04T15:07:40.203Z,12.73
2023-03-04T15:10:38.521Z,12.63
2023-03-04T15:13:52.873Z,11.70
2023-03-04T15:16:57.532Z,15.10
2023-03-04T15:20:03.904Z,7.57
2023-03-04T15:22:55.975Z,11.32
2023-03-04T15:25:48.963Z,14.52
2023-03-04T15:28:39.673Z,7.32
2023-03-04T15:31:32.163Z,8.43
2023-03-04T15:34:28.547Z,8.63
2023-03-04T15:37:29.326Z,10.82
2023-03-04T15:40:34.086Z,13.10
2023-03-04T15:43:28.698Z,9.65
2023-03-04T15:46:18.128Z,6.28
2023-03-04T15:49:08.783Z,6.22
2023-03-04T15:51:57.014Z,8.95
2023-03-04T15:54:49.813Z,4.40
2023-03-04T15:57:37.986Z,10.68
2023-03-04T16:00:26.152Z,12.43
2023-03-04T16:03:20.076Z,8.98
2023-03-04T16:06:20.186Z,7.35
2023-03-04T16:09:20.107Z,10.45
2023-03-04T16:13:26.099Z,12.98
2023-03-04T16:19:04.669Z,6.40
2023-03-04T16:21:58.872Z,7.38
2023-03-04T16:24:48.503Z,7.88
2023-03-04T16:27:40.567Z,7.53
2023-03-04T16:30:33.322Z,7.82
2023-03-04T16:33:21.656Z,10.98
2023-03-04T16:36:22.551Z,12.82
2023-03-04T16:39:26.538Z,11.23
2023-03-04T16:42:19.196Z,20.65
2023-03-04T16:45:26.291Z,19.67
2023-03-04T16:48:21.287Z,18.33
2023-03-04T16:51:20.621Z,20.25
2023-03-04T16:54:19.646Z,16.73
2023-03-04T16:57:11.970Z,20.65
2023-03-04T17:00:11.281Z,21.17
2023-03-04T17:03:17.964Z,17.90
2023-03-04T17:06:07.059Z,17.33
2023-03-04T17:09:00.285Z,25.65
2023-03-04T17:11:53.384Z,23.57
2023-03-04T17:14:47.971Z,19.33
2023-03-04T17:17:37.549Z,22.17
2023-03-04T17:20:25.763Z,21.42
2023-03-04T17:23:13.994Z,20.65
2023-03-04T17:26:05.926Z,22.55
2023-03-04T17:29:27.654Z,20.73
2023-03-04T17:32:19.446Z,22.42
2023-03-04T17:35:11.661Z,25.88
2023-03-04T17:37:59.698Z,24.25
2023-03-04T17:40:48.110Z,23.73
2023-03-04T17:43:44.810Z,23.30
2023-03-04T17:46:42.146Z,21.33
2023-03-04T17:49:44.949Z,19.50
2023-03-04T17:52:35.925Z,21.10
2023-03-04T17:55:25.724Z,18.10
2023-03-04T17:58:22.445Z,20.20
2023-03-04T18:01:31.231Z,19.15
2023-03-04T18:04:23.054Z,22.73
2023-03-04T18:07:39.036Z,25.50
2023-03-04T18:10:34.606Z,24.75
2023-03-04T18:13:30.231Z,26.27
2023-03-04T18:16:33.037Z,19.83
2023-03-04T18:19:28.074Z,24.45
2023-03-04T18:22:23.048Z,26.38
2023-03-04T18:25:25.528Z,25.45
2023-03-04T18:28:21.967Z,25.58
2023-03-04T18:31:22.159Z,24.55
2023-03-04T18:34:14.322Z,29.73
2023-03-04T18:37:13.597Z,26.35
2023-03-04T19:09:55.698Z,32.63
2023-03-04T19:13:04.682Z,40.78
2023-03-04T19:16:10.612Z,41.30
2023-03-04T19:19:03.582Z,39.35
2023-03-04T19:21:54.341Z,31.95
2023-03-04T19:28:03.544Z,28.17
2023-03-04T19:31:51.508Z,35.47
2023-03-04T19:34:59.271Z,30.33
2023-03-04T19:38:06.067Z,31.80
2023-03-04T19:41:05.986Z,35.28
2023-03-04T19:43:57.729Z,31.33
2023-03-04T19:49:43.472Z,33.72
2023-03-04T19:52:44.807Z,31.95
2023-03-04T19:55:42.965Z,30.05
2023-03-04T20:01:42.211Z,31.90
2023-03-04T20:11:44.227Z,30.67
2023-03-04T20:18:09.206Z,27.58
2023-03-04T20:21:05.269Z,24.27
2023-03-04T20:24:18.294Z,23.20
2023-03-04T20:27:24.479Z,22.05
2023-03-04T20:30:32.685Z,39.15
2023-03-04T20:33:40.099Z,25.75
2023-03-04T20:36:37.757Z,23.73
2023-03-04T20:39:40.921Z,20.02
2023-03-04T20:42:31.654Z,24.05
2023-03-04T20:45:31.122Z,26.42
2023-03-04T20:48:28.488Z,26.85
2023-03-04T20:55:03.188Z,26.75
2023-03-04T20:57:54.955Z,26.73
2023-03-04T21:00:57.434Z,24.13
2023-03-04T21:03:58.717Z,29.02
2023-03-04T21:10:54.176Z,26.08
2023-03-04T21:14:00.856Z,24.17
2023-03-04T21:18:46.750Z,30.33
2023-03-04T21:21:53.872Z,30.13
2023-03-04T21:34:03.140Z,24.92
2023-03-04T21:37:10.702Z,18.67
2023-03-04T21:52:52.914Z,21.65
2023-03-04T21:56:25.696Z,18.33
2023-03-04T22:00:20.391Z,25.13
2023-03-04T22:04:12.355Z,21.10
2023-03-04T22:08:19.523Z,17.35
2023-03-04T22:11:26.528Z,22.35
2023-03-04T22:14:36.998Z,21.95
2023-03-04T22:17:32.634Z,22.13
2023-03-04T22:20:56.983Z,21.75
2023-03-04T22:30:29.690Z,19.43
2023-03-04T22:45:14.743Z,22.65
2023-03-04T22:51:58.796Z,21.02
2023-03-04T22:58:34.908Z,27.90
2023-03-04T23:01:31.709Z,24.10
2023-03-04T23:04:22.073Z,20.52
2023-03-04T23:11:10.177Z,23.67
2023-03-04T23:14:13.982Z,20.42
2023-03-04T23:17:10.125Z,23.48
2023-03-04T23:20:35.321Z,25.55
2023-03-04T23:27:08.225Z,19.05
2023-03-04T23:33:50.661Z,17.63
2023-03-04T23:37:21.081Z,22.08
2023-03-04T23:40:29.128Z,18.95
2023-03-04T23:43:38.719Z,17.77
2023-03-04T23:49:59.998Z,16.13
